Time;durP1;ratioP1;P1;durP2;ratioP2;P2;SDS_P1;SDS_P2;PMS_P1;PMS_P2;Temp;Humidity;BMP_temperature;BMP_pressure;BME280_temperature;BME280_humidity;BME280_pressure;Samples;Min_cycle;Max_cycle;Signal;HPM_P1;HPM_P2
2023/05/03 00:00:41;;;;;;;5.07;1.13;;;8.20;99.90;;;;;;4994705;28;20060;-79
2023/05/03 00:03:30;;;;;;;5.60;0.52;;;8.30;99.90;;;;;;4985633;28;20537;-78
2023/05/03 00:06:16;;;;;;;9.88;0.85;;;8.20;99.90;;;;;;4982621;28;20097;-82
2023/05/03 00:09:06;;;;;;;5.35;1.33;;;8.30;99.90;;;;;;4995804;28;20100;-77
2023/05/03 00:12:00;;;;;;;5.00;0.85;;;8.30;99.90;;;;;;4998704;28;20049;-76
2023/05/03 00:14:47;;;;;;;3.30;0.90;;;8.30;99.90;;;;;;5012964;28;20060;-80
2023/05/03 00:17:33;;;;;;;3.45;0.95;;;8.30;99.90;;;;;;5010579;28;20498;-77
2023/05/03 00:20:19;;;;;;;6.00;1.10;;;8.30;99.90;;;;;;4978945;28;20054;-78
2023/05/03 00:23:05;;;;;;;2.92;0.77;;;8.30;99.90;;;;;;4994689;28;20058;-78
2023/05/03 00:25:54;;;;;;;5.50;1.70;;;8.40;99.90;;;;;;4997823;28;20053;-78
2023/05/03 00:28:40;;;;;;;3.20;1.73;;;8.40;99.90;;;;;;4982674;28;20050;-78
2023/05/03 00:31:26;;;;;;;4.20;0.80;;;8.30;99.90;;;;;;4994840;28;20101;-80
2023/05/03 00:34:12;;;;;;;5.70;1.20;;;8.30;99.90;;;;;;4995117;28;20046;-79
2023/05/03 00:36:59;;;;;;;4.68;0.70;;;8.40;99.90;;;;;;5012909;28;20072;-80
2023/05/03 00:39:45;;;;;;;4.00;1.00;;;8.40;99.90;;;;;;4997207;28;20144;-78
2023/05/03 00:42:35;;;;;;;5.55;0.95;;;8.40;99.90;;;;;;4996661;28;20053;-79
2023/05/03 00:45:24;;;;;;;6.00;1.00;;;8.40;99.90;;;;;;4996804;28;20061;-79
2023/05/03 00:48:11;;;;;;;6.70;1.00;;;8.40;99.90;;;;;;4995894;28;20483;-78
2023/05/03 00:50:59;;;;;;;4.45;0.70;;;8.40;99.90;;;;;;4982650;28;20108;-79
2023/05/03 00:53:45;;;;;;;9.35;0.90;;;8.40;99.90;;;;;;4998663;28;20133;-79
2023/05/03 00:56:32;;;;;;;5.85;1.13;;;8.40;99.90;;;;;;5012756;28;20612;-79
2023/05/03 00:59:19;;;;;;;4.07;1.30;;;8.30;99.90;;;;;;5011390;28;20509;-79
2023/05/03 01:02:05;;;;;;;3.25;0.93;;;8.40;99.90;;;;;;4995280;28;20054;-79
2023/05/03 01:04:52;;;;;;;8.18;0.95;;;8.30;99.90;;;;;;4995294;28;20701;-78
2023/05/03 01:07:55;;;;;;;4.05;0.73;;;8.30;99.90;;;;;;4981067;28;20077;-77
2023/05/03 01:10:49;;;;;;;3.60;1.00;;;8.30;99.90;;;;;;4981002;28;20136;-77
2023/05/03 01:13:50;;;;;;;5.32;0.70;;;8.30;99.90;;;;;;4994419;28;20088;-77
2023/05/03 01:16:46;;;;;;;4.15;1.27;;;8.30;99.90;;;;;;4993959;28;20068;-79
2023/05/03 01:19:43;;;;;;;5.25;1.15;;;8.20;99.90;;;;;;4994906;28;20139;-80
2023/05/03 01:22:33;;;;;;;4.32;0.85;;;8.20;99.90;;;;;;4994161;28;20058;-78
2023/05/03 01:25:19;;;;;;;4.43;1.40;;;8.20;99.90;;;;;;4994480;28;20053;-79
2023/05/03 01:28:05;;;;;;;3.08;0.63;;;8.20;99.90;;;;;;4995174;28;20471;-77
2023/05/03 01:30:53;;;;;;;2.88;0.70;;;8.10;99.90;;;;;;5004011;28;20053;-78
2023/05/03 01:34:11;;;;;;;4.13;1.08;;;8.10;99.90;;;;;;4994502;28;20061;-78
2023/05/03 01:37:02;;;;;;;4.03;0.93;;;8.10;99.90;;;;;;4994621;28;20084;-80
2023/05/03 01:39:54;;;;;;;9.43;1.75;;;8.10;99.90;;;;;;4979752;28;20495;-79
2023/05/03 01:42:41;;;;;;;4.53;1.02;;;8.10;99.90;;;;;;4985343;28;20050;-79
2023/05/03 01:45:28;;;;;;;4.28;0.95;;;8.10;99.90;;;;;;4994602;28;20049;-79
2023/05/03 01:48:16;;;;;;;2.88;0.80;;;8.10;99.90;;;;;;4981362;28;20046;-80
2023/05/03 01:51:03;;;;;;;3.53;0.80;;;8.10;99.90;;;;;;4993575;28;20107;-77
2023/05/03 01:53:49;;;;;;;4.00;0.88;;;8.10;99.90;;;;;;4994392;28;20127;-78
2023/05/03 01:56:36;;;;;;;4.60;1.17;;;8.10;99.90;;;;;;4996548;28;20078;-77
2023/05/03 01:59:22;;;;;;;6.63;2.00;;;8.10;99.90;;;;;;5011646;28;20046;-78
2023/05/03 02:02:08;;;;;;;5.07;0.80;;;8.10;99.90;;;;;;4994678;28;20365;-79
2023/05/03 02:04:54;;;;;;;5.05;1.10;;;8.20;99.90;;;;;;5010540;28;20466;-78
2023/05/03 02:07:40;;;;;;;5.00;0.98;;;8.10;99.90;;;;;;5010111;28;20116;-78
2023/05/03 02:10:26;;;;;;;2.22;0.93;;;8.10;99.90;;;;;;4979715;28;20064;-82
2023/05/03 02:13:12;;;;;;;3.22;0.90;;;8.10;99.90;;;;;;4980000;28;20173;-78
2023/05/03 02:15:58;;;;;;;4.82;0.73;;;8.10;99.90;;;;;;4994620;28;20057;-79
2023/05/03 02:18:46;;;;;;;3.13;1.10;;;8.10;99.90;;;;;;4986768;28;20434;-78
2023/05/03 02:21:36;;;;;;;2.95;0.75;;;8.10;99.90;;;;;;4993804;28;20120;-77
2023/05/03 02:24:22;;;;;;;4.00;1.00;;;8.10;99.90;;;;;;4993390;28;20169;-76
2023/05/03 02:27:09;;;;;;;3.25;0.70;;;8.00;99.80;;;;;;5011370;28;20057;-78
2023/05/03 02:29:55;;;;;;;3.08;0.68;;;8.00;99.80;;;;;;4994073;28;20053;-77
2023/05/03 02:32:41;;;;;;;6.45;0.80;;;8.00;99.80;;;;;;4972737;28;20057;-77
2023/05/03 02:35:27;;;;;;;2.15;0.65;;;8.00;99.90;;;;;;5010652;28;20387;-77
2023/05/03 02:38:13;;;;;;;5.97;0.80;;;7.90;99.90;;;;;;4993290;28;20073;-77
2023/05/03 02:40:59;;;;;;;5.32;0.70;;;7.90;99.90;;;;;;4995026;28;20069;-77
2023/05/03 02:43:45;;;;;;;3.47;0.93;;;7.90;99.90;;;;;;4994843;28;20474;-77
2023/05/03 02:46:34;;;;;;;4.53;0.88;;;7.90;99.90;;;;;;4996997;28;20046;-77
2023/05/03 02:49:20;;;;;;;4.45;0.93;;;7.90;99.90;;;;;;4993382;28;20509;-80
2023/05/03 02:52:07;;;;;;;3.10;0.77;;;8.00;99.90;;;;;;5011209;28;20061;-77
2023/05/03 02:54:54;;;;;;;7.32;1.02;;;8.00;99.90;;;;;;4979461;28;20152;-80
2023/05/03 02:57:40;;;;;;;5.28;0.80;;;8.00;99.90;;;;;;5011077;28;20464;-77
2023/05/03 03:00:26;;;;;;;4.03;1.05;;;7.90;99.90;;;;;;4992532;28;20060;-79
2023/05/03 03:03:12;;;;;;;6.47;0.90;;;8.00;99.90;;;;;;5009047;28;20093;-76
2023/05/03 03:05:59;;;;;;;4.18;1.27;;;8.00;99.90;;;;;;4981325;28;20053;-78
2023/05/03 03:08:45;;;;;;;4.60;0.60;;;8.10;99.90;;;;;;4993966;28;20061;-77
2023/05/03 03:11:31;;;;;;;6.47;1.23;;;8.00;99.90;;;;;;4992489;28;20127;-77
2023/05/03 03:14:17;;;;;;;3.25;0.85;;;8.10;99.90;;;;;;5009998;28;20057;-76
2023/05/03 03:17:08;;;;;;;2.72;0.80;;;8.10;99.90;;;;;;5010448;28;20490;-77
2023/05/03 03:19:54;;;;;;;3.60;0.95;;;8.00;99.90;;;;;;4978121;28;20081;-78
2023/05/03 03:22:40;;;;;;;5.68;0.90;;;8.00;99.90;;;;;;4993854;28;20137;-79
2023/05/03 03:25:26;;;;;;;3.95;0.75;;;8.00;99.90;;;;;;5008605;28;20061;-76
2023/05/03 03:28:12;;;;;;;3.25;0.60;;;8.00;99.90;;;;;;4992262;28;20049;-78
2023/05/03 03:30:58;;;;;;;13.55;1.45;;;7.90;99.90;;;;;;4993226;28;20054;-76
2023/05/03 03:33:45;;;;;;;6.25;0.77;;;7.80;99.90;;;;;;4977124;28;20176;-78
2023/05/03 03:36:31;;;;;;;3.25;1.20;;;7.80;99.90;;;;;;4992343;28;20085;-77
2023/05/03 03:39:17;;;;;;;3.95;1.00;;;7.80;99.90;;;;;;5009303;28;20052;-77
2023/05/03 03:42:03;;;;;;;3.65;0.80;;;7.80;99.90;;;;;;4992223;28;20097;-77
2023/05/03 03:44:49;;;;;;;2.67;0.68;;;7.70;99.90;;;;;;4993747;28;20107;-78
2023/05/03 03:47:35;;;;;;;7.20;1.35;;;7.70;99.90;;;;;;4991906;28;20065;-80
2023/05/03 03:50:21;;;;;;;7.25;0.98;;;7.70;99.90;;;;;;5008177;28;20061;-80
2023/05/03 03:53:09;;;;;;;4.72;0.95;;;7.70;99.90;;;;;;5008895;28;20045;-78
2023/05/03 03:55:55;;;;;;;4.45;0.98;;;7.70;99.90;;;;;;4992446;28;20062;-78
2023/05/03 03:58:42;;;;;;;3.47;0.70;;;7.70;99.90;;;;;;4977280;28;20096;-78
2023/05/03 04:01:28;;;;;;;4.60;0.98;;;7.80;99.90;;;;;;4991823;28;20054;-78
2023/05/03 04:04:14;;;;;;;3.28;0.95;;;7.80;99.90;;;;;;4995894;28;20057;-76
2023/05/03 04:07:00;;;;;;;5.60;0.90;;;7.80;99.90;;;;;;4991050;28;20140;-79
2023/05/03 04:09:49;;;;;;;5.47;0.90;;;7.80;99.90;;;;;;4992051;28;20137;-80
2023/05/03 04:12:36;;;;;;;2.95;1.08;;;7.90;99.90;;;;;;4993105;28;20050;-76
2023/05/03 04:15:22;;;;;;;2.17;0.80;;;8.00;99.90;;;;;;4992021;28;20054;-77
2023/05/03 04:18:08;;;;;;;5.70;1.02;;;7.90;99.90;;;;;;4978175;28;20096;-79
2023/05/03 04:20:54;;;;;;;2.13;0.65;;;8.00;99.90;;;;;;4991773;28;20042;-79
2023/05/03 04:23:41;;;;;;;3.00;0.77;;;8.00;99.90;;;;;;4991958;28;20084;-78
2023/05/03 04:26:27;;;;;;;3.20;0.90;;;8.00;99.90;;;;;;4991783;28;20081;-80
2023/05/03 04:29:13;;;;;;;5.85;0.90;;;8.00;99.90;;;;;;5009040;28;20059;-81
2023/05/03 04:32:01;;;;;;;7.32;0.82;;;8.10;99.90;;;;;;5013123;28;20103;-76
2023/05/03 04:34:49;;;;;;;1.98;0.82;;;8.10;99.90;;;;;;4996785;28;20521;-76
2023/05/03 04:37:38;;;;;;;5.43;0.93;;;8.10;99.90;;;;;;5012467;28;20060;-75
2023/05/03 04:40:25;;;;;;;2.92;0.70;;;8.10;99.90;;;;;;4981981;28;20061;-78
2023/05/03 04:43:11;;;;;;;3.35;0.70;;;8.10;99.90;;;;;;5012039;28;20050;-79
2023/05/03 04:45:57;;;;;;;3.13;0.90;;;8.20;99.90;;;;;;5012690;28;20050;-78
2023/05/03 04:48:44;;;;;;;7.85;0.95;;;8.20;99.90;;;;;;4994795;28;20053;-78
2023/05/03 04:51:31;;;;;;;3.42;1.05;;;8.20;99.90;;;;;;4982560;28;20062;-77
2023/05/03 04:54:20;;;;;;;3.80;0.88;;;8.20;99.90;;;;;;4981584;28;20866;-78
2023/05/03 04:57:09;;;;;;;2.72;0.90;;;8.20;99.90;;;;;;4995541;28;20104;-77
2023/05/03 04:59:55;;;;;;;4.50;1.40;;;8.20;99.90;;;;;;4994309;28;20410;-77
2023/05/03 05:02:41;;;;;;;4.78;0.80;;;8.30;99.90;;;;;;4981941;28;20050;-79
2023/05/03 05:05:27;;;;;;;4.95;0.85;;;8.30;99.90;;;;;;4981668;28;20808;-81
2023/05/03 05:08:14;;;;;;;2.90;0.88;;;8.40;99.90;;;;;;5012435;28;20052;-81
2023/05/03 05:11:03;;;;;;;2.55;0.85;;;8.40;99.90;;;;;;4968941;28;20056;-82
2023/05/03 05:13:49;;;;;;;1.65;0.63;;;8.40;99.90;;;;;;4993711;28;20058;-83
2023/05/03 05:16:35;;;;;;;2.95;1.02;;;8.50;99.90;;;;;;4994690;28;20057;-79
2023/05/03 05:19:22;;;;;;;4.00;0.80;;;8.50;99.90;;;;;;4982430;28;20140;-81
2023/05/03 05:22:08;;;;;;;5.60;1.08;;;8.50;99.90;;;;;;4982129;28;20532;-81
2023/05/03 05:24:55;;;;;;;4.38;0.90;;;8.60;99.90;;;;;;4995421;28;20053;-81
2023/05/03 05:27:42;;;;;;;7.28;1.20;;;8.60;99.90;;;;;;4995010;28;20064;-83
2023/05/03 05:30:29;;;;;;;9.32;0.90;;;8.70;99.90;;;;;;4996082;28;20097;-82
2023/05/03 05:33:16;;;;;;;4.57;0.93;;;8.70;99.90;;;;;;4994727;28;20465;-81
2023/05/03 05:36:02;;;;;;;3.75;0.88;;;8.70;99.90;;;;;;4994928;28;20116;-83
2023/05/03 05:38:49;;;;;;;6.70;0.90;;;8.80;99.90;;;;;;4994634;28;20514;-82
2023/05/03 05:41:35;;;;;;;3.28;0.75;;;8.80;99.90;;;;;;5011694;28;20414;-81
2023/05/03 05:44:21;;;;;;;5.82;0.80;;;8.80;99.90;;;;;;5011543;28;20050;-82
2023/05/03 05:47:08;;;;;;;3.60;0.60;;;8.90;99.90;;;;;;4995763;28;20057;-82
2023/05/03 05:49:54;;;;;;;4.15;0.80;;;8.90;99.90;;;;;;4994399;28;20112;-81
2023/05/03 05:52:40;;;;;;;5.43;0.93;;;8.90;99.90;;;;;;5011848;28;20066;-81
2023/05/03 05:55:27;;;;;;;6.13;1.00;;;8.90;99.90;;;;;;4994881;28;20530;-82
2023/05/03 05:58:14;;;;;;;4.82;0.95;;;8.90;99.90;;;;;;4981350;28;20096;-83
2023/05/03 06:01:00;;;;;;;7.15;1.10;;;8.90;99.90;;;;;;5012345;28;20409;-82
2023/05/03 06:03:47;;;;;;;7.85;1.13;;;9.00;99.90;;;;;;4994571;28;20081;-81
2023/05/03 06:06:33;;;;;;;6.15;1.10;;;9.00;99.90;;;;;;5010627;28;20050;-80
2023/05/03 06:09:19;;;;;;;3.42;1.25;;;9.10;99.90;;;;;;5010550;28;20052;-81
2023/05/03 06:12:05;;;;;;;7.15;0.82;;;9.10;99.90;;;;;;4980702;28;20050;-80
2023/05/03 06:14:51;;;;;;;2.30;1.13;;;9.10;99.90;;;;;;4993303;28;20388;-82
2023/05/03 06:17:37;;;;;;;2.03;0.75;;;9.20;99.90;;;;;;5011620;28;20148;-82
2023/05/03 06:20:23;;;;;;;4.38;0.88;;;9.10;99.90;;;;;;4981102;28;20198;-80
2023/05/03 06:23:10;;;;;;;7.35;1.30;;;9.20;99.90;;;;;;4992498;28;20080;-78
2023/05/03 06:25:59;;;;;;;2.78;0.90;;;9.30;99.90;;;;;;4993821;28;20127;-80
2023/05/03 06:28:46;;;;;;;4.55;1.40;;;9.30;99.90;;;;;;4994688;28;20065;-82
2023/05/03 06:31:32;;;;;;;5.95;1.10;;;9.40;99.90;;;;;;5012155;28;20054;-81
2023/05/03 06:34:20;;;;;;;5.28;1.10;;;9.40;99.90;;;;;;4980291;28;20517;-78
2023/05/03 06:37:06;;;;;;;3.45;1.10;;;9.50;99.90;;;;;;4993287;28;20108;-82
2023/05/03 06:39:53;;;;;;;3.25;0.80;;;9.50;99.90;;;;;;4994010;28;20066;-81
2023/05/03 06:42:39;;;;;;;5.05;0.88;;;9.50;99.90;;;;;;4993351;28;20544;-81
2023/05/03 06:45:27;;;;;;;4.03;0.70;;;9.60;99.90;;;;;;4992033;28;20536;-81
2023/05/03 06:48:16;;;;;;;5.32;0.98;;;9.60;99.90;;;;;;4993854;28;20050;-78
2023/05/03 06:51:02;;;;;;;9.25;0.93;;;9.60;99.90;;;;;;4994184;28;20053;-81
2023/05/03 06:53:48;;;;;;;4.03;0.85;;;9.70;99.90;;;;;;5010539;28;20053;-78
2023/05/03 06:56:35;;;;;;;5.65;1.58;;;9.80;99.90;;;;;;4994540;28;20060;-79
2023/05/03 06:59:22;;;;;;;3.95;0.98;;;9.90;99.90;;;;;;4992919;28;20050;-79
2023/05/03 07:02:08;;;;;;;5.05;1.85;;;9.90;99.90;;;;;;4993904;28;20483;-80
2023/05/03 07:04:54;;;;;;;7.53;0.98;;;9.90;99.90;;;;;;4993405;28;20490;-79
2023/05/03 07:07:40;;;;;;;4.95;0.82;;;10.00;99.90;;;;;;4992786;28;20053;-78
2023/05/03 07:10:29;;;;;;;8.30;1.17;;;10.00;99.90;;;;;;5010713;28;20647;-79
2023/05/03 07:13:18;;;;;;;5.05;0.90;;;10.10;99.90;;;;;;5010314;28;20049;-81
2023/05/03 07:16:05;;;;;;;4.60;0.98;;;10.20;99.90;;;;;;4995273;28;20056;-79
2023/05/03 07:18:51;;;;;;;5.30;0.90;;;10.30;99.90;;;;;;5011302;28;20438;-79
2023/05/03 07:21:38;;;;;;;3.60;0.90;;;10.40;99.90;;;;;;5010534;28;20418;-79
2023/05/03 07:24:24;;;;;;;7.93;1.10;;;10.50;99.50;;;;;;5009964;28;20483;-78
2023/05/03 07:27:11;;;;;;;7.43;0.98;;;10.50;99.10;;;;;;4991178;28;20054;-77
2023/05/03 07:29:59;;;;;;;4.07;0.60;;;10.50;98.90;;;;;;4993185;28;20453;-79
2023/05/03 07:32:45;;;;;;;4.05;0.80;;;10.50;98.60;;;;;;4992412;28;20061;-79
2023/05/03 07:35:34;;;;;;;3.95;1.33;;;10.60;98.40;;;;;;4979347;28;20088;-78
2023/05/03 07:38:20;;;;;;;4.05;0.98;;;10.60;98.20;;;;;;4992684;28;20053;-78
2023/05/03 07:41:06;;;;;;;4.55;0.98;;;10.70;98.00;;;;;;5009320;28;20042;-78
2023/05/03 07:43:55;;;;;;;5.40;1.67;;;10.70;97.80;;;;;;5010590;28;20049;-80
2023/05/03 07:46:41;;;;;;;2.53;0.60;;;10.90;97.80;;;;;;4992122;28;20450;-80
2023/05/03 07:49:27;;;;;;;5.93;0.88;;;10.90;97.50;;;;;;5011036;28;20046;-80
2023/05/03 07:52:13;;;;;;;4.82;0.90;;;10.90;97.50;;;;;;4973006;28;20080;-79
2023/05/03 07:55:02;;;;;;;4.18;0.98;;;11.10;97.50;;;;;;4973683;28;20434;-80
2023/05/03 07:57:48;;;;;;;3.70;0.82;;;11.20;97.50;;;;;;4983560;28;20082;-78
2023/05/03 08:00:34;;;;;;;4.30;1.20;;;11.30;97.20;;;;;;4972448;28;20050;-79
2023/05/03 08:03:20;;;;;;;5.10;0.88;;;11.30;96.80;;;;;;4972954;28;20443;-78
2023/05/03 08:06:07;;;;;;;3.13;0.80;;;11.30;96.40;;;;;;4992948;28;20061;-82
2023/05/03 08:08:54;;;;;;;3.20;0.70;;;11.40;96.50;;;;;;4976903;28;20531;-80
2023/05/03 08:11:40;;;;;;;4.05;0.90;;;11.50;96.30;;;;;;4976878;28;20058;-78
2023/05/03 08:14:29;;;;;;;2.33;0.70;;;11.50;96.40;;;;;;4976247;28;20101;-79
2023/05/03 08:17:20;;;;;;;4.10;0.80;;;11.60;96.40;;;;;;4963989;28;20053;-79
2023/05/03 08:20:07;;;;;;;4.82;0.88;;;11.60;96.20;;;;;;4973829;28;20062;-78
2023/05/03 08:22:58;;;;;;;4.15;1.27;;;11.70;96.30;;;;;;4970221;28;20137;-79
2023/05/03 08:25:46;;;;;;;3.38;1.35;;;11.80;96.20;;;;;;4975425;28;20061;-80
2023/05/03 08:28:33;;;;;;;5.57;0.93;;;11.70;96.00;;;;;;4976715;28;20486;-79
2023/05/03 08:31:20;;;;;;;6.95;0.98;;;11.80;96.10;;;;;;4977133;28;20057;-80
2023/05/03 08:34:09;;;;;;;3.35;0.88;;;11.90;95.90;;;;;;4938025;28;20526;-79
2023/05/03 08:36:58;;;;;;;5.90;1.20;;;11.90;95.70;;;;;;4970029;28;20046;-78
2023/05/03 08:39:46;;;;;;;3.72;0.88;;;12.00;95.90;;;;;;4962878;28;20054;-81
2023/05/03 08:42:32;;;;;;;2.88;1.00;;;12.20;95.70;;;;;;4975769;28;20042;-82
2023/05/03 08:45:18;;;;;;;7.55;0.95;;;12.20;95.40;;;;;;4976996;28;20104;-81
2023/05/03 08:48:06;;;;;;;1.80;0.73;;;12.30;95.60;;;;;;4987848;28;20669;-80
2023/05/03 08:50:55;;;;;;;7.78;1.50;;;12.40;95.50;;;;;;4980197;28;20046;-82
2023/05/03 08:53:42;;;;;;;8.80;1.23;;;12.60;95.40;;;;;;5013384;28;20505;-79
2023/05/03 08:56:33;;;;;;;10.63;1.75;;;12.60;95.00;;;;;;4996346;28;20046;-78
2023/05/03 08:59:19;;;;;;;3.28;0.80;;;12.70;94.70;;;;;;4998451;28;20103;-79
2023/05/03 09:02:08;;;;;;;8.05;1.30;;;12.60;94.50;;;;;;4982874;28;20054;-80
2023/05/03 09:04:55;;;;;;;3.45;1.02;;;12.70;94.70;;;;;;4980857;28;20576;-78
2023/05/03 09:08:01;;;;;;;2.05;0.75;;;12.80;94.50;;;;;;4982668;28;20086;-79
2023/05/03 09:10:47;;;;;;;;;;;12.80;93.80;;;;;;4995004;28;20049;-78
2023/05/03 09:13:33;;;;;;;5.20;1.00;;;12.80;94.30;;;;;;4994408;28;19925;-79
2023/05/03 09:16:26;;;;;;;5.30;1.10;;;12.90;94.40;;;;;;5010732;28;20058;-80
2023/05/03 09:19:14;;;;;;;2.28;0.77;;;13.10;94.00;;;;;;4995608;28;20104;-80
2023/05/03 09:22:06;;;;;;;7.32;1.08;;;13.30;94.00;;;;;;5012336;28;20049;-80
2023/05/03 09:24:56;;;;;;;3.42;1.42;;;13.50;93.50;;;;;;4980442;28;20115;-80
2023/05/03 09:27:42;;;;;;;4.90;0.90;;;13.70;93.60;;;;;;4994086;28;20097;-80
2023/05/03 09:30:28;;;;;;;3.97;0.70;;;13.90;93.00;;;;;;5011624;28;20050;-80
2023/05/03 09:33:29;;;;;;;3.42;0.70;;;13.90;92.40;;;;;;4997689;28;20120;-80
2023/05/03 09:36:16;;;;;;;5.20;0.80;;;14.20;91.80;;;;;;5012948;28;20049;-79
2023/05/03 09:39:15;;;;;;;3.50;1.10;;;14.70;91.70;;;;;;5011503;28;20050;-81
2023/05/03 09:42:13;;;;;;;5.05;0.90;;;14.90;90.20;;;;;;4993844;28;20065;-81
2023/05/03 09:44:59;;;;;;;3.05;0.77;;;14.80;89.90;;;;;;4994574;28;20057;-81
2023/05/03 09:47:51;;;;;;;5.28;0.70;;;14.80;90.20;;;;;;4992374;28;20053;-80
2023/05/03 09:50:41;;;;;;;3.10;0.60;;;14.50;89.90;;;;;;4993302;28;20050;-81
2023/05/03 09:53:35;;;;;;;4.90;0.80;;;14.50;89.60;;;;;;4993855;28;20184;-80
2023/05/03 09:56:25;;;;;;;5.72;0.80;;;14.40;88.40;;;;;;5011237;28;20054;-81
2023/05/03 09:59:12;;;;;;;5.28;0.80;;;14.50;89.70;;;;;;4994847;28;20494;-81
2023/05/03 10:02:04;;;;;;;5.07;1.58;;;14.60;88.90;;;;;;4993543;28;20104;-82
2023/05/03 10:04:55;;;;;;;2.70;0.70;;;14.70;88.40;;;;;;5011566;28;20053;-78
2023/05/03 10:07:42;;;;;;;3.30;0.93;;;14.70;88.10;;;;;;4995085;28;20140;-79
2023/05/03 10:10:33;;;;;;;4.38;0.95;;;14.60;87.50;;;;;;4994865;28;20053;-81
2023/05/03 10:13:23;;;;;;;2.60;0.88;;;14.70;86.20;;;;;;4995836;28;20061;-79
2023/05/03 10:16:18;;;;;;;2.88;0.70;;;14.60;87.50;;;;;;4987989;28;20244;-77
2023/05/03 10:19:24;;;;;;;4.50;0.80;;;14.80;86.60;;;;;;5012324;28;20053;-79
2023/05/03 10:22:10;;;;;;;4.32;0.88;;;14.70;86.90;;;;;;4993397;28;20057;-80
2023/05/03 10:25:00;;;;;;;5.68;0.75;;;14.60;88.00;;;;;;4994877;28;20061;-79
2023/05/03 10:27:50;;;;;;;5.50;0.88;;;14.60;87.50;;;;;;5011371;28;20054;-81
2023/05/03 10:30:38;;;;;;;2.45;0.60;;;14.80;87.60;;;;;;4994111;28;20049;-81
2023/05/03 10:33:28;;;;;;;2.70;0.77;;;14.80;87.70;;;;;;5011399;28;20089;-80
2023/05/03 10:36:15;;;;;;;2.55;1.10;;;14.90;87.60;;;;;;5011785;28;20041;-81
2023/05/03 10:39:02;;;;;;;2.83;0.80;;;14.80;86.20;;;;;;5010900;28;20058;-81
2023/05/03 10:42:03;;;;;;;5.20;1.00;;;15.10;85.70;;;;;;4993184;28;20085;-81
2023/05/03 10:44:53;;;;;;;6.18;1.67;;;15.30;84.50;;;;;;4992920;28;20062;-80
2023/05/03 10:47:40;;;;;;;2.92;0.80;;;15.50;85.20;;;;;;5010364;28;20137;-79
2023/05/03 10:50:26;;;;;;;2.63;0.60;;;15.80;83.80;;;;;;4978370;28;20073;-80
2023/05/03 10:53:37;;;;;;;5.07;0.90;;;15.80;83.60;;;;;;4993373;28;20054;-80
2023/05/03 10:56:23;;;;;;;4.03;0.82;;;15.80;81.70;;;;;;4992595;28;20097;-82
2023/05/03 10:59:12;;;;;;;3.20;0.60;;;16.00;81.60;;;;;;5011098;28;20451;-81
2023/05/03 11:01:58;;;;;;;5.13;0.88;;;16.20;80.90;;;;;;5010406;28;20050;-81
2023/05/03 11:04:47;;;;;;;4.95;0.77;;;16.60;81.80;;;;;;4992148;28;20108;-80
2023/05/03 11:07:35;;;;;;;2.92;0.77;;;16.90;79.90;;;;;;5011035;28;20069;-81
2023/05/03 11:10:21;;;;;;;4.40;0.80;;;17.30;78.20;;;;;;4978019;28;20616;-81
2023/05/03 11:13:07;;;;;;;7.28;0.77;;;17.40;77.40;;;;;;5009426;28;20065;-80
2023/05/03 11:15:56;;;;;;;3.28;0.70;;;17.40;76.40;;;;;;4980075;28;20054;-82
2023/05/03 11:18:42;;;;;;;2.60;0.88;;;17.90;74.20;;;;;;4993845;28;20062;-82
2023/05/03 11:21:31;;;;;;;5.07;1.05;;;18.00;74.50;;;;;;4992698;28;20050;-81
2023/05/03 11:24:17;;;;;;;5.57;0.75;;;18.20;74.50;;;;;;4995994;28;20062;-81
2023/05/03 11:27:04;;;;;;;5.40;1.08;;;18.60;72.80;;;;;;5009809;28;20120;-80
2023/05/03 11:29:51;;;;;;;4.10;0.70;;;18.50;71.00;;;;;;5009439;28;20057;-81
2023/05/03 11:32:38;;;;;;;4.45;0.80;;;18.30;68.70;;;;;;4992529;28;20084;-79
2023/05/03 11:35:28;;;;;;;3.67;0.60;;;18.60;68.20;;;;;;5010257;28;20169;-80
2023/05/03 11:38:14;;;;;;;5.30;0.85;;;19.00;67.20;;;;;;4996482;28;20081;-81
2023/05/03 11:41:13;;;;;;;4.97;0.65;;;19.00;67.20;;;;;;4982156;28;20042;-82
2023/05/03 11:44:04;;;;;;;4.07;0.68;;;19.30;67.30;;;;;;5014256;28;20084;-82
2023/05/03 11:46:50;;;;;;;5.90;0.77;;;19.30;65.80;;;;;;4997515;28;20482;-82
2023/05/03 11:49:37;;;;;;;3.03;1.10;;;19.20;64.80;;;;;;4997196;28;20065;-82
2023/05/03 11:52:26;;;;;;;3.00;0.43;;;19.30;64.20;;;;;;4997691;28;20061;-81
2023/05/03 11:55:12;;;;;;;5.57;0.80;;;19.80;65.70;;;;;;5014186;28;20046;-82
2023/05/03 11:58:00;;;;;;;3.25;0.60;;;20.30;65.20;;;;;;4983235;28;20049;-80
2023/05/03 12:00:50;;;;;;;4.82;0.90;;;20.60;63.90;;;;;;4984168;28;20064;-82
2023/05/03 12:03:37;;;;;;;6.28;0.80;;;20.90;61.80;;;;;;5014073;28;20418;-82
2023/05/03 12:06:26;;;;;;;1.00;0.38;;;21.00;62.00;;;;;;4996707;28;20170;-81
2023/05/03 12:09:15;;;;;;;1.95;0.55;;;20.80;62.80;;;;;;4995349;28;20136;-82
2023/05/03 12:12:02;;;;;;;3.85;0.68;;;20.90;60.70;;;;;;4995761;28;20056;-82
2023/05/03 12:15:00;;;;;;;2.58;0.50;;;20.60;60.10;;;;;;4994630;28;20108;-81
2023/05/03 12:17:47;;;;;;;5.57;1.42;;;20.80;56.80;;;;;;4994594;28;20046;-82
2023/05/03 12:20:33;;;;;;;3.67;1.00;;;20.90;60.60;;;;;;4995317;28;20058;-81
2023/05/03 12:23:19;;;;;;;5.63;0.95;;;21.20;59.50;;;;;;4995802;28;20148;-82
2023/05/03 12:26:06;;;;;;;2.22;0.60;;;21.80;58.30;;;;;;5016037;28;20127;-84
2023/05/03 12:28:52;;;;;;;1.75;0.45;;;21.70;57.50;;;;;;4997381;28;20494;-82
2023/05/03 12:31:39;;;;;;;5.65;0.73;;;21.70;57.90;;;;;;4998926;28;20065;-82
2023/05/03 12:34:27;;;;;;;3.47;0.68;;;21.90;56.20;;;;;;4982189;28;20136;-82
2023/05/03 12:37:13;;;;;;;4.15;1.27;;;21.50;55.50;;;;;;4995240;28;20064;-82
2023/05/03 12:40:00;;;;;;;5.05;0.70;;;21.30;55.40;;;;;;4994841;28;20064;-82
2023/05/03 12:42:47;;;;;;;2.20;0.60;;;21.30;55.50;;;;;;4998000;28;20140;-82
2023/05/03 12:45:33;;;;;;;2.15;0.70;;;20.80;55.70;;;;;;4994387;28;20054;-81
2023/05/03 12:48:23;;;;;;;5.78;0.88;;;20.70;55.90;;;;;;4981568;28;20062;-81
2023/05/03 12:51:09;;;;;;;5.75;0.60;;;20.60;55.60;;;;;;4993116;28;20506;-82
2023/05/03 12:53:55;;;;;;;2.88;0.60;;;20.30;54.70;;;;;;4982128;28;20145;-82
2023/05/03 12:56:42;;;;;;;4.35;0.63;;;20.60;55.90;;;;;;4994088;28;20057;-81
2023/05/03 12:59:29;;;;;;;4.47;1.15;;;20.80;56.00;;;;;;4997820;28;20057;-81
2023/05/03 13:02:16;;;;;;;3.95;0.63;;;20.40;55.50;;;;;;4980077;28;20437;-82
2023/05/03 13:05:05;;;;;;;4.22;0.82;;;20.00;55.80;;;;;;4994498;28;20085;-81
2023/05/03 13:07:52;;;;;;;3.67;0.90;;;19.70;56.00;;;;;;4996014;28;20752;-81
2023/05/03 13:10:39;;;;;;;4.40;0.88;;;20.00;57.00;;;;;;4995204;28;20531;-81
2023/05/03 13:13:27;;;;;;;2.88;0.65;;;20.30;57.10;;;;;;5012416;28;20144;-81
2023/05/03 13:16:14;;;;;;;5.88;1.00;;;20.10;56.60;;;;;;4982626;28;20058;-81
2023/05/03 13:19:01;;;;;;;4.25;0.65;;;19.90;55.90;;;;;;4995783;28;20058;-80
2023/05/03 13:21:48;;;;;;;3.58;0.65;;;20.20;56.70;;;;;;4997701;28;20054;-81
2023/05/03 13:24:34;;;;;;;3.33;0.75;;;20.60;55.70;;;;;;4994351;28;20058;-81
2023/05/03 13:27:20;;;;;;;3.63;0.80;;;20.10;55.10;;;;;;4981116;28;20167;-81
2023/05/03 13:30:07;;;;;;;3.35;0.70;;;19.90;55.30;;;;;;4980141;28;20046;-82
2023/05/03 13:32:53;;;;;;;4.70;1.17;;;20.30;55.70;;;;;;4993374;28;20493;-81
2023/05/03 13:35:39;;;;;;;4.55;0.70;;;21.30;55.30;;;;;;4997001;28;20053;-82
2023/05/03 13:38:26;;;;;;;3.70;0.77;;;22.20;54.90;;;;;;4994173;28;20462;-81
2023/05/03 13:41:12;;;;;;;4.28;1.48;;;23.00;53.40;;;;;;4980150;28;20057;-81
2023/05/03 13:43:58;;;;;;;3.75;0.60;;;23.30;51.70;;;;;;4980257;28;20077;-81
2023/05/03 13:46:45;;;;;;;3.72;1.27;;;23.10;50.80;;;;;;4993771;28;20049;-81
2023/05/03 13:49:31;;;;;;;3.03;0.65;;;22.40;52.00;;;;;;4980710;28;20053;-82
2023/05/03 13:52:17;;;;;;;4.00;0.60;;;23.10;52.10;;;;;;5011254;28;20053;-82
2023/05/03 13:55:04;;;;;;;3.22;0.60;;;24.50;51.30;;;;;;4995271;28;20057;-81
2023/05/03 13:57:50;;;;;;;2.33;0.65;;;25.10;50.40;;;;;;4968314;28;20045;-82
2023/05/03 14:00:36;;;;;;;3.80;0.70;;;25.50;48.70;;;;;;4980615;28;20073;-82
2023/05/03 14:03:22;;;;;;;3.03;0.73;;;25.40;47.90;;;;;;4992756;28;20050;-81
2023/05/03 14:06:08;;;;;;;3.03;1.13;;;25.50;47.50;;;;;;5012105;28;20042;-81
2023/05/03 14:08:56;;;;;;;2.70;0.63;;;25.70;46.50;;;;;;4980156;28;20141;-82
2023/05/03 14:11:42;;;;;;;5.07;0.77;;;25.80;45.90;;;;;;4994238;28;20053;-81
2023/05/03 14:14:28;;;;;;;4.13;0.70;;;25.60;46.50;;;;;;4980075;28;20092;-81
2023/05/03 14:17:14;;;;;;;5.05;0.70;;;25.90;45.70;;;;;;4992607;28;20041;-81
2023/05/03 14:20:00;;;;;;;4.50;1.00;;;26.00;45.60;;;;;;5011415;28;20057;-82
2023/05/03 14:22:46;;;;;;;2.08;0.57;;;26.30;44.90;;;;;;4980821;28;20604;-82
2023/05/03 14:25:32;;;;;;;1.83;0.85;;;25.40;44.50;;;;;;5008069;28;20422;-81
2023/05/03 14:28:18;;;;;;;5.18;0.60;;;24.10;45.80;;;;;;5009405;28;20058;-81
2023/05/03 14:31:06;;;;;;;6.00;0.90;;;24.00;46.70;;;;;;4997342;28;20053;-81
2023/05/03 14:33:52;;;;;;;2.92;0.80;;;24.70;46.90;;;;;;5009922;28;20743;-82
2023/05/03 14:36:42;;;;;;;7.65;1.00;;;24.80;46.20;;;;;;4994220;28;20414;-82
2023/05/03 14:39:29;;;;;;;9.32;1.58;;;25.30;45.60;;;;;;4995849;28;20053;-81